sensor_id;sensor_type;location;lat;lon;timestamp;temperature;humidity
44982;DHT22;30716;41.740;-70.400;2022-07-18T00:01:57;23.30;50.40
44982;DHT22;30716;41.740;-70.400;2022-07-18T00:04:24;23.30;50.40
44982;DHT22;30716;41.740;-70.400;2022-07-18T00:06:51;23.30;50.40
44982;DHT22;30716;41.740;-70.400;2022-07-18T00:09:18;23.30;50.40
44982;DHT22;30716;41.740;-70.400;2022-07-18T00:11:45;23.30;50.40
44982;DHT22;30716;41.740;-70.400;2022-07-18T00:14:11;23.40;50.50
44982;DHT22;30716;41.740;-70.400;2022-07-18T00:16:38;23.40;50.50
44982;DHT22;30716;41.740;-70.400;2022-07-18T00:19:05;23.30;50.40
44982;DHT22;30716;41.740;-70.400;2022-07-18T00:21:33;23.40;50.60
44982;DHT22;30716;41.740;-70.400;2022-07-18T00:23:59;23.40;50.50
44982;DHT22;30716;41.740;-70.400;2022-07-18T00:26:25;23.40;50.50
44982;DHT22;30716;41.740;-70.400;2022-07-18T00:28:51;23.40;50.50
44982;DHT22;30716;41.740;-70.400;2022-07-18T00:31:17;23.40;50.60
44982;DHT22;30716;41.740;-70.400;2022-07-18T00:33:44;23.40;50.60
44982;DHT22;30716;41.740;-70.400;2022-07-18T00:36:10;23.40;50.60
44982;DHT22;30716;41.740;-70.400;2022-07-18T00:38:38;23.40;50.60
44982;DHT22;30716;41.740;-70.400;2022-07-18T00:41:04;23.40;50.70
44982;DHT22;30716;41.740;-70.400;2022-07-18T00:43:30;23.40;50.60
44982;DHT22;30716;41.740;-70.400;2022-07-18T00:45:57;23.40;50.60
44982;DHT22;30716;41.740;-70.400;2022-07-18T00:48:23;23.40;50.70
44982;DHT22;30716;41.740;-70.400;2022-07-18T00:50:50;23.40;50.70
44982;DHT22;30716;41.740;-70.400;2022-07-18T00:53:16;23.40;50.60
44982;DHT22;30716;41.740;-70.400;2022-07-18T00:55:44;23.40;50.70
44982;DHT22;30716;41.740;-70.400;2022-07-18T00:58:12;23.40;50.60
44982;DHT22;30716;41.740;-70.400;2022-07-18T01:00:38;23.40;50.60
44982;DHT22;30716;41.740;-70.400;2022-07-18T01:03:24;23.40;50.50
44982;DHT22;30716;41.740;-70.400;2022-07-18T01:05:50;23.40;50.50
44982;DHT22;30716;41.740;-70.400;2022-07-18T01:08:16;23.30;50.40
44982;DHT22;30716;41.740;-70.400;2022-07-18T01:10:43;23.30;50.40
44982;DHT22;30716;41.740;-70.400;2022-07-18T01:13:09;23.30;50.50
44982;DHT22;30716;41.740;-70.400;2022-07-18T01:15:35;23.30;50.50
44982;DHT22;30716;41.740;-70.400;2022-07-18T01:18:02;23.30;50.60
44982;DHT22;30716;41.740;-70.400;2022-07-18T01:20:30;23.30;50.60
44982;DHT22;30716;41.740;-70.400;2022-07-18T01:22:57;23.30;50.50
44982;DHT22;30716;41.740;-70.400;2022-07-18T01:25:23;23.30;50.50
44982;DHT22;30716;41.740;-70.400;2022-07-18T01:27:49;23.30;50.50
44982;DHT22;30716;41.740;-70.400;2022-07-18T01:30:16;23.40;50.60
44982;DHT22;30716;41.740;-70.400;2022-07-18T01:32:43;23.30;50.50
44982;DHT22;30716;41.740;-70.400;2022-07-18T01:35:10;23.30;50.50
44982;DHT22;30716;41.740;-70.400;2022-07-18T01:37:36;23.30;50.50
44982;DHT22;30716;41.740;-70.400;2022-07-18T01:40:07;23.30;50.40
44982;DHT22;30716;41.740;-70.400;2022-07-18T01:42:34;23.40;50.60
44982;DHT22;30716;41.740;-70.400;2022-07-18T01:45:00;23.40;50.60
44982;DHT22;30716;41.740;-70.400;2022-07-18T01:47:26;23.40;50.60
44982;DHT22;30716;41.740;-70.400;2022-07-18T01:49:52;23.40;50.80
44982;DHT22;30716;41.740;-70.400;2022-07-18T01:52:18;23.40;50.80
44982;DHT22;30716;41.740;-70.400;2022-07-18T01:54:45;23.40;50.80
44982;DHT22;30716;41.740;-70.400;2022-07-18T01:57:11;23.40;50.70
44982;DHT22;30716;41.740;-70.400;2022-07-18T01:59:37;23.30;51.20
44982;DHT22;30716;41.740;-70.400;2022-07-18T02:02:04;23.30;50.40
44982;DHT22;30716;41.740;-70.400;2022-07-18T02:04:31;23.30;50.40
44982;DHT22;30716;41.740;-70.400;2022-07-18T02:07:15;23.30;50.40
44982;DHT22;30716;41.740;-70.400;2022-07-18T02:09:41;23.30;50.40
44982;DHT22;30716;41.740;-70.400;2022-07-18T02:12:07;23.30;50.40
44982;DHT22;30716;41.740;-70.400;2022-07-18T02:14:34;23.30;50.50
44982;DHT22;30716;41.740;-70.400;2022-07-18T02:17:00;23.30;50.50
44982;DHT22;30716;41.740;-70.400;2022-07-18T02:19:26;23.30;50.50
44982;DHT22;30716;41.740;-70.400;2022-07-18T02:21:52;23.30;51.20
44982;DHT22;30716;41.740;-70.400;2022-07-18T02:24:18;23.30;50.50
44982;DHT22;30716;41.740;-70.400;2022-07-18T02:26:44;23.30;50.50
44982;DHT22;30716;41.740;-70.400;2022-07-18T02:29:10;23.30;50.50
44982;DHT22;30716;41.740;-70.400;2022-07-18T02:31:37;23.30;51.20
44982;DHT22;30716;41.740;-70.400;2022-07-18T02:34:03;23.40;50.60
44982;DHT22;30716;41.740;-70.400;2022-07-18T02:36:39;23.40;50.60
44982;DHT22;30716;41.740;-70.400;2022-07-18T02:39:07;23.30;50.50
44982;DHT22;30716;41.740;-70.400;2022-07-18T02:41:34;23.40;50.60
44982;DHT22;30716;41.740;-70.400;2022-07-18T02:44:00;23.40;50.60
44982;DHT22;30716;41.740;-70.400;2022-07-18T02:46:26;23.40;50.60
44982;DHT22;30716;41.740;-70.400;2022-07-18T02:48:52;23.40;50.60
44982;DHT22;30716;41.740;-70.400;2022-07-18T02:51:19;23.40;50.70
44982;DHT22;30716;41.740;-70.400;2022-07-18T02:53:45;23.40;50.60
44982;DHT22;30716;41.740;-70.400;2022-07-18T02:56:11;23.40;50.60
44982;DHT22;30716;41.740;-70.400;2022-07-18T02:58:38;23.40;50.70
44982;DHT22;30716;41.740;-70.400;2022-07-18T03:01:04;23.40;50.70
44982;DHT22;30716;41.740;-70.400;2022-07-18T03:03:30;23.40;50.70
44982;DHT22;30716;41.740;-70.400;2022-07-18T03:05:56;23.40;50.70
44982;DHT22;30716;41.740;-70.400;2022-07-18T03:08:23;23.40;50.80
44982;DHT22;30716;41.740;-70.400;2022-07-18T03:10:49;23.40;50.70
44982;DHT22;30716;41.740;-70.400;2022-07-18T03:13:15;23.40;50.80
44982;DHT22;30716;41.740;-70.400;2022-07-18T03:15:41;23.40;50.80
44982;DHT22;30716;41.740;-70.400;2022-07-18T03:18:07;23.40;50.80
44982;DHT22;30716;41.740;-70.400;2022-07-18T03:20:34;23.40;50.70
44982;DHT22;30716;41.740;-70.400;2022-07-18T03:23:05;23.50;50.80
44982;DHT22;30716;41.740;-70.400;2022-07-18T03:25:31;23.50;50.80
44982;DHT22;30716;41.740;-70.400;2022-07-18T03:27:57;23.50;50.80
44982;DHT22;30716;41.740;-70.400;2022-07-18T03:30:24;23.50;50.90
44982;DHT22;30716;41.740;-70.400;2022-07-18T03:32:50;23.50;51.60
44982;DHT22;30716;41.740;-70.400;2022-07-18T03:35:16;23.50;50.90
44982;DHT22;30716;41.740;-70.400;2022-07-18T03:37:42;23.50;50.90
44982;DHT22;30716;41.740;-70.400;2022-07-18T03:40:09;23.50;50.80
44982;DHT22;30716;41.740;-70.400;2022-07-18T03:42:39;23.50;50.70
44982;DHT22;30716;41.740;-70.400;2022-07-18T03:45:07;23.50;50.70
44982;DHT22;30716;41.740;-70.400;2022-07-18T03:47:34;23.50;50.70
44982;DHT22;30716;41.740;-70.400;2022-07-18T03:50:00;23.40;50.60
44982;DHT22;30716;41.740;-70.400;2022-07-18T03:52:27;23.40;50.60
44982;DHT22;30716;41.740;-70.400;2022-07-18T03:54:53;23.40;50.50
44982;DHT22;30716;41.740;-70.400;2022-07-18T03:57:19;23.40;50.70
44982;DHT22;30716;41.740;-70.400;2022-07-18T03:59:45;23.30;50.50
44982;DHT22;30716;41.740;-70.400;2022-07-18T04:02:11;23.30;50.60
44982;DHT22;30716;41.740;-70.400;2022-07-18T04:04:37;23.40;50.60
44982;DHT22;30716;41.740;-70.400;2022-07-18T04:07:03;23.30;50.50
44982;DHT22;30716;41.740;-70.400;2022-07-18T04:09:29;23.40;50.60
44982;DHT22;30716;41.740;-70.400;2022-07-18T04:11:55;23.40;50.70
44982;DHT22;30716;41.740;-70.400;2022-07-18T04:14:22;23.40;50.60
44982;DHT22;30716;41.740;-70.400;2022-07-18T04:16:49;23.40;50.60
44982;DHT22;30716;41.740;-70.400;2022-07-18T04:19:15;23.40;50.70
44982;DHT22;30716;41.740;-70.400;2022-07-18T04:21:43;23.40;50.60
44982;DHT22;30716;41.740;-70.400;2022-07-18T04:24:09;23.40;50.60
44982;DHT22;30716;41.740;-70.400;2022-07-18T04:26:36;23.40;50.60
44982;DHT22;30716;41.740;-70.400;2022-07-18T04:29:02;23.40;50.60
44982;DHT22;30716;41.740;-70.400;2022-07-18T04:31:28;23.40;50.60
44982;DHT22;30716;41.740;-70.400;2022-07-18T04:33:54;23.40;50.60
44982;DHT22;30716;41.740;-70.400;2022-07-18T04:36:20;23.40;50.70
44982;DHT22;30716;41.740;-70.400;2022-07-18T04:38:46;23.40;50.70
44982;DHT22;30716;41.740;-70.400;2022-07-18T04:41:13;23.40;50.70
44982;DHT22;30716;41.740;-70.400;2022-07-18T04:43:39;23.40;50.70
44982;DHT22;30716;41.740;-70.400;2022-07-18T04:46:05;23.40;50.80
44982;DHT22;30716;41.740;-70.400;2022-07-18T04:48:31;23.40;50.80
44982;DHT22;30716;41.740;-70.400;2022-07-18T04:50:57;23.40;50.70
44982;DHT22;30716;41.740;-70.400;2022-07-18T04:53:23;23.40;50.80
44982;DHT22;30716;41.740;-70.400;2022-07-18T04:55:49;23.40;50.80
44982;DHT22;30716;41.740;-70.400;2022-07-18T04:58:15;23.40;50.80
44982;DHT22;30716;41.740;-70.400;2022-07-18T05:00:41;23.40;50.80
44982;DHT22;30716;41.740;-70.400;2022-07-18T05:03:08;23.50;51.00
44982;DHT22;30716;41.740;-70.400;2022-07-18T05:05:34;23.40;50.90
44982;DHT22;30716;41.740;-70.400;2022-07-18T05:08:00;23.40;50.90
44982;DHT22;30716;41.740;-70.400;2022-07-18T05:10:26;23.50;51.00
44982;DHT22;30716;41.740;-70.400;2022-07-18T05:12:53;23.50;51.00
44982;DHT22;30716;41.740;-70.400;2022-07-18T05:15:21;23.50;51.00
44982;DHT22;30716;41.740;-70.400;2022-07-18T05:17:48;23.50;51.00
44982;DHT22;30716;41.740;-70.400;2022-07-18T05:20:17;23.50;51.00
44982;DHT22;30716;41.740;-70.400;2022-07-18T05:22:43;23.50;51.00
44982;DHT22;30716;41.740;-70.400;2022-07-18T05:25:11;23.50;51.00
44982;DHT22;30716;41.740;-70.400;2022-07-18T05:27:38;23.50;50.90
44982;DHT22;30716;41.740;-70.400;2022-07-18T05:30:06;23.50;50.90
44982;DHT22;30716;41.740;-70.400;2022-07-18T05:32:33;23.50;50.90
44982;DHT22;30716;41.740;-70.400;2022-07-18T05:34:59;23.50;50.90
44982;DHT22;30716;41.740;-70.400;2022-07-18T05:37:26;23.50;50.90
44982;DHT22;30716;41.740;-70.400;2022-07-18T05:39:52;23.50;50.90
44982;DHT22;30716;41.740;-70.400;2022-07-18T05:42:19;23.50;50.90
44982;DHT22;30716;41.740;-70.400;2022-07-18T05:44:45;23.50;51.00
44982;DHT22;30716;41.740;-70.400;2022-07-18T05:47:11;23.50;51.00
44982;DHT22;30716;41.740;-70.400;2022-07-18T05:49:39;23.50;51.00
44982;DHT22;30716;41.740;-70.400;2022-07-18T05:52:06;23.50;51.00
44982;DHT22;30716;41.740;-70.400;2022-07-18T05:54:32;23.50;51.10
44982;DHT22;30716;41.740;-70.400;2022-07-18T05:56:58;23.60;51.20
44982;DHT22;30716;41.740;-70.400;2022-07-18T05:59:24;23.50;51.10
44982;DHT22;30716;41.740;-70.400;2022-07-18T06:01:50;23.50;51.10
44982;DHT22;30716;41.740;-70.400;2022-07-18T06:04:16;23.50;51.10
44982;DHT22;30716;41.740;-70.400;2022-07-18T06:06:43;23.60;51.30
44982;DHT22;30716;41.740;-70.400;2022-07-18T06:09:10;23.50;51.20
44982;DHT22;30716;41.740;-70.400;2022-07-18T06:11:38;23.50;51.10
44982;DHT22;30716;41.740;-70.400;2022-07-18T06:14:04;23.60;51.20
44982;DHT22;30716;41.740;-70.400;2022-07-18T06:16:30;23.60;51.20
44982;DHT22;30716;41.740;-70.400;2022-07-18T06:18:57;23.50;51.10
44982;DHT22;30716;41.740;-70.400;2022-07-18T06:21:23;23.50;51.20
44982;DHT22;30716;41.740;-70.400;2022-07-18T06:23:50;23.50;51.10
44982;DHT22;30716;41.740;-70.400;2022-07-18T06:26:16;23.60;51.20
44982;DHT22;30716;41.740;-70.400;2022-07-18T06:28:42;23.60;51.10
44982;DHT22;30716;41.740;-70.400;2022-07-18T06:31:08;23.60;51.20
44982;DHT22;30716;41.740;-70.400;2022-07-18T06:33:34;23.60;51.00
44982;DHT22;30716;41.740;-70.400;2022-07-18T06:36:01;23.60;51.10
44982;DHT22;30716;41.740;-70.400;2022-07-18T06:38:27;23.60;51.00
44982;DHT22;30716;41.740;-70.400;2022-07-18T06:40:53;23.70;51.10
44982;DHT22;30716;41.740;-70.400;2022-07-18T06:43:19;23.70;51.10
44982;DHT22;30716;41.740;-70.400;2022-07-18T06:45:49;23.70;51.10
44982;DHT22;30716;41.740;-70.400;2022-07-18T06:48:18;23.60;51.00
44982;DHT22;30716;41.740;-70.400;2022-07-18T06:50:44;23.60;51.00
44982;DHT22;30716;41.740;-70.400;2022-07-18T06:53:10;23.60;51.00
44982;DHT22;30716;41.740;-70.400;2022-07-18T06:55:36;23.60;50.80
44982;DHT22;30716;41.740;-70.400;2022-07-18T06:58:02;23.60;50.70
44982;DHT22;30716;41.740;-70.400;2022-07-18T07:00:29;23.60;50.80
44982;DHT22;30716;41.740;-70.400;2022-07-18T07:02:55;23.60;51.10
44982;DHT22;30716;41.740;-70.400;2022-07-18T07:05:21;23.60;51.00
44982;DHT22;30716;41.740;-70.400;2022-07-18T07:07:48;23.60;51.00
44982;DHT22;30716;41.740;-70.400;2022-07-18T07:10:15;23.60;51.00
44982;DHT22;30716;41.740;-70.400;2022-07-18T07:12:49;23.60;51.00
44982;DHT22;30716;41.740;-70.400;2022-07-18T07:15:17;23.60;51.00
44982;DHT22;30716;41.740;-70.400;2022-07-18T07:17:45;23.60;51.00
44982;DHT22;30716;41.740;-70.400;2022-07-18T07:20:14;23.60;51.00
44982;DHT22;30716;41.740;-70.400;2022-07-18T07:22:55;23.60;51.00
44982;DHT22;30716;41.740;-70.400;2022-07-18T07:25:23;23.70;51.10
44982;DHT22;30716;41.740;-70.400;2022-07-18T07:27:49;23.60;51.00
44982;DHT22;30716;41.740;-70.400;2022-07-18T07:30:16;23.60;50.90
44982;DHT22;30716;41.740;-70.400;2022-07-18T07:32:44;23.70;51.00
44982;DHT22;30716;41.740;-70.400;2022-07-18T07:35:13;23.70;51.00
44982;DHT22;30716;41.740;-70.400;2022-07-18T07:37:44;23.70;51.00
44982;DHT22;30716;41.740;-70.400;2022-07-18T07:40:11;23.70;51.10
44982;DHT22;30716;41.740;-70.400;2022-07-18T07:42:37;23.60;51.00
44982;DHT22;30716;41.740;-70.400;2022-07-18T07:45:04;23.70;51.20
44982;DHT22;30716;41.740;-70.400;2022-07-18T07:47:31;23.70;51.10
44982;DHT22;30716;41.740;-70.400;2022-07-18T07:49:57;23.70;52.00
44982;DHT22;30716;41.740;-70.400;2022-07-18T07:52:24;23.70;51.20
44982;DHT22;30716;41.740;-70.400;2022-07-18T07:54:51;23.70;51.20
44982;DHT22;30716;41.740;-70.400;2022-07-18T07:57:18;23.70;51.20
44982;DHT22;30716;41.740;-70.400;2022-07-18T07:59:45;23.70;51.30
44982;DHT22;30716;41.740;-70.400;2022-07-18T08:02:11;23.70;51.20
44982;DHT22;30716;41.740;-70.400;2022-07-18T08:04:37;23.70;51.20
44982;DHT22;30716;41.740;-70.400;2022-07-18T08:07:03;23.70;51.20
44982;DHT22;30716;41.740;-70.400;2022-07-18T08:09:29;23.70;51.20
44982;DHT22;30716;41.740;-70.400;2022-07-18T08:11:55;23.70;51.30
44982;DHT22;30716;41.740;-70.400;2022-07-18T08:14:21;23.70;51.20
44982;DHT22;30716;41.740;-70.400;2022-07-18T08:16:48;23.70;51.30
44982;DHT22;30716;41.740;-70.400;2022-07-18T08:19:14;23.70;51.20
44982;DHT22;30716;41.740;-70.400;2022-07-18T08:21:40;23.70;51.20
44982;DHT22;30716;41.740;-70.400;2022-07-18T08:24:06;23.70;51.40
44982;DHT22;30716;41.740;-70.400;2022-07-18T08:26:33;23.70;51.30
44982;DHT22;30716;41.740;-70.400;2022-07-18T08:29:05;23.70;51.30
44982;DHT22;30716;41.740;-70.400;2022-07-18T08:31:32;23.70;51.20
44982;DHT22;30716;41.740;-70.400;2022-07-18T08:33:58;23.70;51.20
44982;DHT22;30716;41.740;-70.400;2022-07-18T08:36:25;23.70;51.20
44982;DHT22;30716;41.740;-70.400;2022-07-18T08:38:51;23.70;51.20
44982;DHT22;30716;41.740;-70.400;2022-07-18T08:41:18;23.70;51.20
44982;DHT22;30716;41.740;-70.400;2022-07-18T08:43:48;23.70;51.20
44982;DHT22;30716;41.740;-70.400;2022-07-18T08:46:18;23.70;51.20
44982;DHT22;30716;41.740;-70.400;2022-07-18T08:48:47;23.70;51.70
44982;DHT22;30716;41.740;-70.400;2022-07-18T08:51:13;23.70;51.20
44982;DHT22;30716;41.740;-70.400;2022-07-18T08:53:40;23.70;51.20
44982;DHT22;30716;41.740;-70.400;2022-07-18T08:56:07;23.70;51.30
44982;DHT22;30716;41.740;-70.400;2022-07-18T08:58:33;23.70;51.20
44982;DHT22;30716;41.740;-70.400;2022-07-18T09:00:59;23.70;51.30
44982;DHT22;30716;41.740;-70.400;2022-07-18T09:03:25;23.70;51.30
44982;DHT22;30716;41.740;-70.400;2022-07-18T09:06:12;23.70;51.30
44982;DHT22;30716;41.740;-70.400;2022-07-18T09:08:40;23.70;51.40
44982;DHT22;30716;41.740;-70.400;2022-07-18T09:11:22;23.70;51.40
44982;DHT22;30716;41.740;-70.400;2022-07-18T09:13:48;23.70;51.40
44982;DHT22;30716;41.740;-70.400;2022-07-18T09:16:14;23.70;51.40
44982;DHT22;30716;41.740;-70.400;2022-07-18T09:18:42;23.70;51.40
44982;DHT22;30716;41.740;-70.400;2022-07-18T09:21:09;23.70;51.40
44982;DHT22;30716;41.740;-70.400;2022-07-18T09:23:38;23.70;51.40
44982;DHT22;30716;41.740;-70.400;2022-07-18T09:26:05;23.70;51.40
44982;DHT22;30716;41.740;-70.400;2022-07-18T09:28:53;23.70;51.40
44982;DHT22;30716;41.740;-70.400;2022-07-18T09:31:21;23.80;51.50
44982;DHT22;30716;41.740;-70.400;2022-07-18T09:33:57;23.70;51.50
44982;DHT22;30716;41.740;-70.400;2022-07-18T09:36:23;23.70;51.40
44982;DHT22;30716;41.740;-70.400;2022-07-18T09:38:50;23.80;51.50
44982;DHT22;30716;41.740;-70.400;2022-07-18T09:41:21;23.70;51.40
44982;DHT22;30716;41.740;-70.400;2022-07-18T09:43:47;23.70;51.30
44982;DHT22;30716;41.740;-70.400;2022-07-18T09:46:13;23.70;51.30
44982;DHT22;30716;41.740;-70.400;2022-07-18T09:48:39;23.70;51.10
44982;DHT22;30716;41.740;-70.400;2022-07-18T09:51:06;23.70;51.10
44982;DHT22;30716;41.740;-70.400;2022-07-18T09:53:37;23.70;51.10
44982;DHT22;30716;41.740;-70.400;2022-07-18T09:56:11;23.70;51.00
44982;DHT22;30716;41.740;-70.400;2022-07-18T09:58:40;23.60;50.90
44982;DHT22;30716;41.740;-70.400;2022-07-18T10:01:08;23.60;50.90
44982;DHT22;30716;41.740;-70.400;2022-07-18T10:03:35;23.50;50.90
44982;DHT22;30716;41.740;-70.400;2022-07-18T10:06:01;23.60;51.70
44982;DHT22;30716;41.740;-70.400;2022-07-18T10:08:33;23.50;51.00
44982;DHT22;30716;41.740;-70.400;2022-07-18T10:11:01;23.50;50.90
44982;DHT22;30716;41.740;-70.400;2022-07-18T10:13:29;23.50;50.90
44982;DHT22;30716;41.740;-70.400;2022-07-18T10:15:56;23.50;50.90
44982;DHT22;30716;41.740;-70.400;2022-07-18T10:18:24;23.50;50.90
44982;DHT22;30716;41.740;-70.400;2022-07-18T10:23:25;23.50;50.90
44982;DHT22;30716;41.740;-70.400;2022-07-18T10:28:33;23.50;50.90
44982;DHT22;30716;41.740;-70.400;2022-07-18T10:31:16;23.60;51.10
44982;DHT22;30716;41.740;-70.400;2022-07-18T10:33:43;23.60;51.00
44982;DHT22;30716;41.740;-70.400;2022-07-18T10:36:13;23.60;51.10
44982;DHT22;30716;41.740;-70.400;2022-07-18T10:39:07;23.50;51.10
44982;DHT22;30716;41.740;-70.400;2022-07-18T10:42:19;23.60;51.20
44982;DHT22;30716;41.740;-70.400;2022-07-18T10:47:08;23.50;51.10
44982;DHT22;30716;41.740;-70.400;2022-07-18T11:00:11;23.50;51.20
44982;DHT22;30716;41.740;-70.400;2022-07-18T11:02:46;23.50;51.30
44982;DHT22;30716;41.740;-70.400;2022-07-18T11:21:28;23.60;51.30
44982;DHT22;30716;41.740;-70.400;2022-07-18T11:26:36;23.60;52.00
44982;DHT22;30716;41.740;-70.400;2022-07-18T11:29:08;23.60;51.30
44982;DHT22;30716;41.740;-70.400;2022-07-18T11:31:57;23.60;51.30
44982;DHT22;30716;41.740;-70.400;2022-07-18T11:34:24;23.70;51.40
44982;DHT22;30716;41.740;-70.400;2022-07-18T11:36:50;23.70;51.40
44982;DHT22;30716;41.740;-70.400;2022-07-18T11:39:31;23.70;51.30
44982;DHT22;30716;41.740;-70.400;2022-07-18T11:41:57;23.70;51.30
44982;DHT22;30716;41.740;-70.400;2022-07-18T11:44:24;23.70;51.30
44982;DHT22;30716;41.740;-70.400;2022-07-18T11:47:07;23.70;51.30
44982;DHT22;30716;41.740;-70.400;2022-07-18T11:49:36;23.70;51.30
44982;DHT22;30716;41.740;-70.400;2022-07-18T11:52:03;23.70;51.20
44982;DHT22;30716;41.740;-70.400;2022-07-18T11:54:29;23.70;51.10
44982;DHT22;30716;41.740;-70.400;2022-07-18T11:56:56;23.70;51.10
44982;DHT22;30716;41.740;-70.400;2022-07-18T11:59:23;23.60;51.00
44982;DHT22;30716;41.740;-70.400;2022-07-18T12:02:00;23.60;51.00
44982;DHT22;30716;41.740;-70.400;2022-07-18T12:04:27;23.70;51.10
44982;DHT22;30716;41.740;-70.400;2022-07-18T12:07:14;23.60;51.00
44982;DHT22;30716;41.740;-70.400;2022-07-18T12:09:41;23.60;50.80
44982;DHT22;30716;41.740;-70.400;2022-07-18T12:12:11;23.60;50.80
44982;DHT22;30716;41.740;-70.400;2022-07-18T12:14:37;23.70;51.00
44982;DHT22;30716;41.740;-70.400;2022-07-18T12:17:05;23.60;50.90
44982;DHT22;30716;41.740;-70.400;2022-07-18T12:19:37;23.60;51.00
44982;DHT22;30716;41.740;-70.400;2022-07-18T12:24:39;23.60;50.80
44982;DHT22;30716;41.740;-70.400;2022-07-18T12:30:08;23.50;50.50
44982;DHT22;30716;41.740;-70.400;2022-07-18T12:35:21;23.50;50.50
44982;DHT22;30716;41.740;-70.400;2022-07-18T12:38:08;23.50;50.30
44982;DHT22;30716;41.740;-70.400;2022-07-18T12:40:52;23.50;50.60
44982;DHT22;30716;41.740;-70.400;2022-07-18T12:43:26;23.50;50.50
44982;DHT22;30716;41.740;-70.400;2022-07-18T12:45:53;23.50;50.50
44982;DHT22;30716;41.740;-70.400;2022-07-18T12:48:20;23.50;50.60
44982;DHT22;30716;41.740;-70.400;2022-07-18T12:51:02;23.50;50.70
44982;DHT22;30716;41.740;-70.400;2022-07-18T12:53:31;23.50;50.40
44982;DHT22;30716;41.740;-70.400;2022-07-18T12:55:58;23.40;49.90
44982;DHT22;30716;41.740;-70.400;2022-07-18T12:58:24;23.40;49.80
44982;DHT22;30716;41.740;-70.400;2022-07-18T13:00:50;23.40;49.80
44982;DHT22;30716;41.740;-70.400;2022-07-18T13:03:17;23.30;50.00
44982;DHT22;30716;41.740;-70.400;2022-07-18T13:05:43;23.30;50.40
44982;DHT22;30716;41.740;-70.400;2022-07-18T13:08:09;23.30;50.50
44982;DHT22;30716;41.740;-70.400;2022-07-18T13:10:38;23.30;50.80
44982;DHT22;30716;41.740;-70.400;2022-07-18T13:13:06;23.40;50.90
44982;DHT22;30716;41.740;-70.400;2022-07-18T13:15:36;23.30;50.50
44982;DHT22;30716;41.740;-70.400;2022-07-18T13:18:03;23.30;50.40
44982;DHT22;30716;41.740;-70.400;2022-07-18T13:20:30;23.40;50.60
44982;DHT22;30716;41.740;-70.400;2022-07-18T13:22:57;23.40;50.60
44982;DHT22;30716;41.740;-70.400;2022-07-18T13:25:27;23.40;50.60
44982;DHT22;30716;41.740;-70.400;2022-07-18T13:27:53;23.40;50.50
44982;DHT22;30716;41.740;-70.400;2022-07-18T13:30:19;23.40;50.50
44982;DHT22;30716;41.740;-70.400;2022-07-18T13:32:45;23.40;50.50
44982;DHT22;30716;41.740;-70.400;2022-07-18T13:35:12;23.40;50.60
44982;DHT22;30716;41.740;-70.400;2022-07-18T13:37:38;23.40;50.30
44982;DHT22;30716;41.740;-70.400;2022-07-18T13:40:05;23.40;50.30
44982;DHT22;30716;41.740;-70.400;2022-07-18T13:42:32;23.40;50.30
44982;DHT22;30716;41.740;-70.400;2022-07-18T13:44:58;23.40;50.40
44982;DHT22;30716;41.740;-70.400;2022-07-18T13:47:25;23.40;50.40
44982;DHT22;30716;41.740;-70.400;2022-07-18T13:49:51;23.40;50.40
44982;DHT22;30716;41.740;-70.400;2022-07-18T13:52:17;23.30;50.30
44982;DHT22;30716;41.740;-70.400;2022-07-18T13:54:43;23.30;50.20
44982;DHT22;30716;41.740;-70.400;2022-07-18T13:57:09;23.30;49.90
44982;DHT22;30716;41.740;-70.400;2022-07-18T13:59:35;23.30;49.70
44982;DHT22;30716;41.740;-70.400;2022-07-18T14:02:02;23.30;49.70
44982;DHT22;30716;41.740;-70.400;2022-07-18T14:04:28;23.20;49.60
44982;DHT22;30716;41.740;-70.400;2022-07-18T14:06:54;23.20;49.90
44982;DHT22;30716;41.740;-70.400;2022-07-18T14:09:20;23.20;50.00
44982;DHT22;30716;41.740;-70.400;2022-07-18T14:11:46;23.20;50.30
44982;DHT22;30716;41.740;-70.400;2022-07-18T14:14:12;23.20;50.40
44982;DHT22;30716;41.740;-70.400;2022-07-18T14:16:38;23.30;50.40
44982;DHT22;30716;41.740;-70.400;2022-07-18T14:19:05;23.20;50.30
44982;DHT22;30716;41.740;-70.400;2022-07-18T14:21:31;23.20;50.40
44982;DHT22;30716;41.740;-70.400;2022-07-18T14:23:57;23.30;50.50
44982;DHT22;30716;41.740;-70.400;2022-07-18T14:26:23;23.30;50.50
44982;DHT22;30716;41.740;-70.400;2022-07-18T14:28:52;23.30;50.50
44982;DHT22;30716;41.740;-70.400;2022-07-18T14:31:18;23.30;50.10
44982;DHT22;30716;41.740;-70.400;2022-07-18T14:33:44;23.20;49.70
44982;DHT22;30716;41.740;-70.400;2022-07-18T14:36:10;23.20;49.70
44982;DHT22;30716;41.740;-70.400;2022-07-18T14:38:36;23.20;49.80
44982;DHT22;30716;41.740;-70.400;2022-07-18T14:41:02;23.20;49.90
44982;DHT22;30716;41.740;-70.400;2022-07-18T14:43:29;23.10;49.80
44982;DHT22;30716;41.740;-70.400;2022-07-18T14:45:55;23.10;49.90
44982;DHT22;30716;41.740;-70.400;2022-07-18T14:48:22;23.10;49.80
44982;DHT22;30716;41.740;-70.400;2022-07-18T14:50:49;23.10;50.00
44982;DHT22;30716;41.740;-70.400;2022-07-18T14:53:15;23.10;50.00
44982;DHT22;30716;41.740;-70.400;2022-07-18T14:55:41;23.00;49.90
44982;DHT22;30716;41.740;-70.400;2022-07-18T14:58:09;23.10;49.80
44982;DHT22;30716;41.740;-70.400;2022-07-18T15:00:35;23.00;49.90
44982;DHT22;30716;41.740;-70.400;2022-07-18T15:03:02;23.00;49.80
44982;DHT22;30716;41.740;-70.400;2022-07-18T15:05:28;23.00;49.60
44982;DHT22;30716;41.740;-70.400;2022-07-18T15:07:54;23.00;49.60
44982;DHT22;30716;41.740;-70.400;2022-07-18T15:10:20;23.00;49.70
44982;DHT22;30716;41.740;-70.400;2022-07-18T15:12:46;23.00;49.60
44982;DHT22;30716;41.740;-70.400;2022-07-18T15:15:12;23.00;49.70
44982;DHT22;30716;41.740;-70.400;2022-07-18T15:17:38;23.00;49.60
44982;DHT22;30716;41.740;-70.400;2022-07-18T15:20:05;23.00;49.60
44982;DHT22;30716;41.740;-70.400;2022-07-18T15:22:32;23.00;49.50
44982;DHT22;30716;41.740;-70.400;2022-07-18T15:24:58;23.00;49.50
44982;DHT22;30716;41.740;-70.400;2022-07-18T15:27:24;23.00;49.50
44982;DHT22;30716;41.740;-70.400;2022-07-18T15:29:50;23.10;49.40
44982;DHT22;30716;41.740;-70.400;2022-07-18T15:32:16;23.00;49.40
44982;DHT22;30716;41.740;-70.400;2022-07-18T15:34:42;23.10;49.50
44982;DHT22;30716;41.740;-70.400;2022-07-18T15:37:08;23.10;49.50
44982;DHT22;30716;41.740;-70.400;2022-07-18T15:39:34;23.10;49.40
44982;DHT22;30716;41.740;-70.400;2022-07-18T15:42:01;23.10;49.40
44982;DHT22;30716;41.740;-70.400;2022-07-18T15:44:27;23.10;49.40
44982;DHT22;30716;41.740;-70.400;2022-07-18T15:46:53;23.10;49.50
44982;DHT22;30716;41.740;-70.400;2022-07-18T15:49:19;23.10;49.80
44982;DHT22;30716;41.740;-70.400;2022-07-18T15:51:45;23.10;49.80